createdAt,value
2024-03-06T00:02:00.011Z,43.70
2024-03-06T00:04:26.968Z,45.75
2024-03-06T00:06:55.083Z,44.30
2024-03-06T00:09:22.140Z,44.92
2024-03-06T00:11:49.163Z,43.33
2024-03-06T00:14:16.114Z,46.80
2024-03-06T00:16:43.994Z,48.40
2024-03-06T00:19:10.800Z,46.38
2024-03-06T00:21:37.651Z,48.25
2024-03-06T00:24:05.016Z,45.63
2024-03-06T00:26:31.787Z,45.90
2024-03-06T00:28:58.837Z,44.65
2024-03-06T00:31:25.623Z,44.75
2024-03-06T00:33:52.525Z,43.53
2024-03-06T00:36:19.439Z,44.55
2024-03-06T00:38:46.193Z,43.88
2024-03-06T00:41:13.158Z,42.38
2024-03-06T00:43:40.071Z,45.25
2024-03-06T00:46:06.984Z,46.67
2024-03-06T00:48:33.997Z,44.65
2024-03-06T00:51:00.815Z,45.58
2024-03-06T00:53:27.650Z,46.15
2024-03-06T00:55:54.946Z,44.50
2024-03-06T00:58:21.773Z,49.67
2024-03-06T01:00:48.667Z,44.33
2024-03-06T01:03:15.513Z,45.92
2024-03-06T01:05:42.333Z,46.92
2024-03-06T01:08:09.271Z,44.45
2024-03-06T01:10:36.827Z,46.47
2024-03-06T01:13:04.171Z,46.90
2024-03-06T01:15:31.098Z,46.83
2024-03-06T01:17:58.769Z,48.53
2024-03-06T01:20:25.959Z,45.58
2024-03-06T01:22:52.929Z,44.55
2024-03-06T01:25:20.118Z,45.85
2024-03-06T01:27:46.862Z,47.47
2024-03-06T01:30:13.677Z,45.65
2024-03-06T01:32:40.492Z,46.60
2024-03-06T01:35:08.202Z,46.65
2024-03-06T01:37:35.076Z,48.03
2024-03-06T01:40:05.142Z,46.45
2024-03-06T01:42:32.127Z,48.85
2024-03-06T01:44:58.858Z,45.58
2024-03-06T01:47:25.917Z,44.40
2024-03-06T01:49:52.814Z,45.97
2024-03-06T01:52:20.255Z,47.53
2024-03-06T01:54:48.440Z,47.00
2024-03-06T01:57:17.728Z,44.90
2024-03-06T01:59:45.062Z,44.00
2024-03-06T02:03:26.790Z,51.63
2024-03-06T02:05:54.282Z,45.65
2024-03-06T02:08:21.032Z,48.85
2024-03-06T02:10:48.175Z,49.13
2024-03-06T02:13:16.007Z,47.05
2024-03-06T02:15:43.086Z,47.55
2024-03-06T02:18:10.590Z,46.60
2024-03-06T02:20:41.239Z,46.40
2024-03-06T02:23:08.879Z,44.28
2024-03-06T02:25:36.066Z,45.60
2024-03-06T02:28:02.936Z,46.08
2024-03-06T02:30:36.471Z,46.92
2024-03-06T02:33:08.992Z,46.63
2024-03-06T02:35:40.063Z,46.55
2024-03-06T02:38:07.319Z,45.53
2024-03-06T02:40:34.760Z,47.55
2024-03-06T02:43:01.707Z,47.08
2024-03-06T02:45:28.958Z,48.28
2024-03-06T02:47:56.960Z,46.95
2024-03-06T02:50:24.809Z,46.78
2024-03-06T02:52:52.900Z,48.60
2024-03-06T02:55:20.523Z,46.25
2024-03-06T02:57:47.402Z,49.20
2024-03-06T03:00:15.217Z,46.28
2024-03-06T03:02:42.065Z,48.20
2024-03-06T03:05:09.864Z,47.03
2024-03-06T03:07:36.741Z,47.45
2024-03-06T03:10:05.661Z,47.03
2024-03-06T03:12:32.568Z,48.90
2024-03-06T03:14:59.534Z,49.03
2024-03-06T03:17:26.884Z,47.78
2024-03-06T03:19:53.744Z,47.22
2024-03-06T03:22:20.587Z,46.15
2024-03-06T03:24:48.504Z,47.75
2024-03-06T03:27:15.378Z,44.35
2024-03-06T03:29:42.362Z,47.38
2024-03-06T03:32:09.274Z,48.75
2024-03-06T03:34:36.641Z,45.28
2024-03-06T03:37:03.572Z,45.13
2024-03-06T03:39:30.368Z,46.15
2024-03-06T03:41:57.522Z,45.78
2024-03-06T03:44:24.500Z,48.10
2024-03-06T03:46:52.231Z,48.00
2024-03-06T03:49:19.061Z,48.53
2024-03-06T03:51:46.595Z,48.38
2024-03-06T03:54:13.369Z,46.25
2024-03-06T03:56:40.306Z,45.88
2024-03-06T03:59:07.195Z,51.45
2024-03-06T04:01:34.016Z,48.22
2024-03-06T04:04:00.802Z,48.78
2024-03-06T04:06:27.601Z,48.72
2024-03-06T04:08:54.302Z,48.22
2024-03-06T04:11:21.099Z,47.80
2024-03-06T04:13:48.083Z,48.63
2024-03-06T04:16:21.354Z,48.28
2024-03-06T04:18:48.275Z,50.47
2024-03-06T04:21:16.413Z,47.20
2024-03-06T04:23:44.962Z,47.10
2024-03-06T04:26:11.921Z,48.53
2024-03-06T04:28:38.816Z,48.72
2024-03-06T04:31:06.140Z,48.22
2024-03-06T04:33:33.540Z,47.55
2024-03-06T04:36:09.588Z,49.92
2024-03-06T04:38:36.350Z,48.92
2024-03-06T04:41:03.102Z,49.95
2024-03-06T04:43:29.925Z,48.33
2024-03-06T04:45:56.674Z,48.63
2024-03-06T04:48:23.613Z,48.53
2024-03-06T04:50:50.578Z,48.97
2024-03-06T04:53:17.510Z,47.75
2024-03-06T04:55:44.465Z,49.13
2024-03-06T04:58:11.300Z,48.35
2024-03-06T05:00:38.142Z,47.55
2024-03-06T05:58:11.338Z,49.80
2024-03-06T06:00:40.611Z,46.75
2024-03-06T06:03:08.721Z,52.33
2024-03-06T06:05:36.866Z,48.30
2024-03-06T06:08:03.959Z,52.78
2024-03-06T06:10:30.735Z,49.05
2024-03-06T06:12:58.024Z,49.72
2024-03-06T06:15:24.958Z,52.17
2024-03-06T06:17:51.742Z,48.75
2024-03-06T06:20:19.542Z,50.28
2024-03-06T06:22:46.904Z,47.22
2024-03-06T06:25:14.172Z,49.38
2024-03-06T06:27:41.176Z,49.33
2024-03-06T06:30:12.923Z,48.75
2024-03-06T06:32:41.485Z,50.53
2024-03-06T06:35:10.724Z,50.80
2024-03-06T06:37:37.595Z,56.60
2024-03-06T06:40:08.145Z,51.17
2024-03-06T06:42:38.472Z,56.55
2024-03-06T06:45:07.900Z,51.72
2024-03-06T06:47:35.118Z,54.08
2024-03-06T06:50:06.213Z,54.92
2024-03-06T06:52:34.592Z,56.45
2024-03-06T06:55:01.414Z,57.30
2024-03-06T06:57:28.439Z,60.53
2024-03-06T06:59:55.203Z,55.55
2024-03-06T07:02:21.965Z,55.58
2024-03-06T07:04:49.807Z,54.83
2024-03-06T07:07:16.600Z,52.97
2024-03-06T07:09:43.973Z,53.60
2024-03-06T07:12:11.000Z,58.47
2024-03-06T07:14:37.936Z,56.13
2024-03-06T07:17:04.916Z,57.50
2024-03-06T07:19:31.697Z,59.42
2024-03-06T07:21:58.488Z,56.45
2024-03-06T07:24:25.461Z,61.83
2024-03-06T07:26:52.170Z,57.45
2024-03-06T07:29:19.022Z,61.22
2024-03-06T07:31:45.783Z,62.28
2024-03-06T07:34:13.062Z,59.13
2024-03-06T07:36:40.231Z,58.80
2024-03-06T07:39:07.140Z,57.65
2024-03-06T07:41:34.183Z,58.97
2024-03-06T07:44:01.409Z,59.65
2024-03-06T07:46:28.213Z,56.97
2024-03-06T07:48:55.959Z,62.40
2024-03-06T07:51:22.707Z,60.25
2024-03-06T07:53:51.541Z,56.47
2024-03-06T07:56:18.526Z,56.60
2024-03-06T07:58:45.353Z,54.47
2024-03-06T08:01:12.379Z,53.90
2024-03-06T08:03:41.170Z,58.03
2024-03-06T08:06:07.992Z,57.38
2024-03-06T08:08:35.581Z,54.50
2024-03-06T08:11:02.814Z,55.13
2024-03-06T08:13:30.261Z,57.72
2024-03-06T08:15:57.014Z,55.15
2024-03-06T08:18:23.981Z,55.75
2024-03-06T08:20:50.886Z,55.40
2024-03-06T08:23:17.721Z,53.60
2024-03-06T08:25:44.600Z,56.08
2024-03-06T08:28:11.455Z,57.97
2024-03-06T08:30:38.277Z,54.55
2024-03-06T08:33:05.396Z,55.70
2024-03-06T08:35:33.088Z,54.78
2024-03-06T08:38:00.747Z,54.33
2024-03-06T08:40:29.282Z,52.38
2024-03-06T08:42:56.204Z,52.15
2024-03-06T08:45:24.281Z,51.55
2024-03-06T08:47:51.507Z,49.80
2024-03-06T08:50:18.577Z,50.67
2024-03-06T08:52:47.130Z,49.70
2024-03-06T08:55:14.405Z,52.88
2024-03-06T08:57:41.322Z,51.35
2024-03-06T09:00:12.005Z,55.90
2024-03-06T09:02:39.968Z,55.17
2024-03-06T09:05:09.187Z,54.03
2024-03-06T09:07:39.421Z,51.78
2024-03-06T09:10:06.869Z,52.25
2024-03-06T09:12:34.184Z,53.08
2024-03-06T09:15:02.404Z,50.95
2024-03-06T09:17:29.773Z,52.42
2024-03-06T09:20:07.841Z,51.35
2024-03-06T09:22:38.900Z,50.65
2024-03-06T09:25:07.608Z,54.75
2024-03-06T09:27:34.857Z,52.10
2024-03-06T09:30:02.101Z,54.83
2024-03-06T09:32:29.043Z,55.42
2024-03-06T09:34:55.969Z,53.88
2024-03-06T09:37:22.734Z,53.30
2024-03-06T09:39:49.516Z,50.55
2024-03-06T09:42:16.736Z,54.35
2024-03-06T09:44:43.742Z,48.65
2024-03-06T09:47:15.795Z,49.45
2024-03-06T09:49:43.001Z,46.97
2024-03-06T09:52:11.431Z,46.88
2024-03-06T09:54:40.313Z,48.85
2024-03-06T09:57:07.415Z,50.42
2024-03-06T09:59:34.457Z,50.92
2024-03-06T10:02:07.088Z,46.30
2024-03-06T10:04:35.453Z,48.25
2024-03-06T10:07:03.829Z,50.22
2024-03-06T10:09:32.119Z,49.92
2024-03-06T10:12:01.770Z,50.05
2024-03-06T10:14:31.338Z,47.30
2024-03-06T10:17:01.950Z,49.00
2024-03-06T10:19:30.842Z,48.38
2024-03-06T10:21:58.797Z,46.55
2024-03-06T10:24:30.477Z,47.28
2024-03-06T10:26:59.840Z,47.88
2024-03-06T10:29:29.314Z,47.63
2024-03-06T10:31:58.209Z,49.53
2024-03-06T10:34:27.256Z,48.22
2024-03-06T10:36:59.503Z,45.80
2024-03-06T10:39:26.756Z,43.40
2024-03-06T10:41:58.372Z,46.90
2024-03-06T10:44:28.681Z,45.85
2024-03-06T10:47:03.062Z,45.35
2024-03-06T10:49:31.554Z,46.80
2024-03-06T10:52:02.526Z,45.92
2024-03-06T10:54:31.291Z,46.83
2024-03-06T10:56:58.332Z,45.33
2024-03-06T10:59:30.229Z,45.42
2024-03-06T11:01:58.933Z,46.95
2024-03-06T11:04:34.742Z,46.25
2024-03-06T11:07:03.593Z,44.75
2024-03-06T11:09:39.110Z,50.80
2024-03-06T11:12:09.787Z,44.58
2024-03-06T11:14:41.176Z,42.33
2024-03-06T11:17:10.965Z,42.97
2024-03-06T11:20:07.710Z,45.42
2024-03-06T11:23:00.635Z,43.55
2024-03-06T11:25:51.583Z,43.08
2024-03-06T11:28:20.921Z,43.60
2024-03-06T11:30:48.229Z,42.72
2024-03-06T11:33:18.694Z,44.55
2024-03-06T11:36:34.937Z,44.70
2024-03-06T11:39:09.437Z,46.97
2024-03-06T11:41:36.683Z,45.88
2024-03-06T11:44:03.864Z,44.88
2024-03-06T11:46:55.895Z,46.05
2024-03-06T11:49:26.402Z,45.47
2024-03-06T11:51:54.627Z,43.88
2024-03-06T11:54:28.192Z,44.90
2024-03-06T11:57:06.521Z,45.97
2024-03-06T11:59:35.368Z,48.17
2024-03-06T12:02:07.190Z,46.15
2024-03-06T12:04:38.930Z,47.13
2024-03-06T12:07:07.049Z,47.55
2024-03-06T12:09:37.585Z,48.45
2024-03-06T12:12:07.857Z,48.47
2024-03-06T12:14:38.879Z,49.72
2024-03-06T12:17:05.950Z,46.50
2024-03-06T12:19:33.517Z,47.30
2024-03-06T12:22:07.958Z,49.55
2024-03-06T12:24:34.810Z,49.20
2024-03-06T12:27:07.524Z,48.75
2024-03-06T12:29:36.385Z,47.67
2024-03-06T12:32:04.081Z,49.92
2024-03-06T12:34:33.682Z,48.30
2024-03-06T12:37:11.972Z,46.88
2024-03-06T12:39:42.778Z,47.72
2024-03-06T12:42:13.124Z,45.95
2024-03-06T12:44:41.797Z,48.45
2024-03-06T12:47:08.711Z,48.05
2024-03-06T12:49:35.503Z,44.72
2024-03-06T12:52:04.701Z,45.72
2024-03-06T12:54:32.787Z,43.50
2024-03-06T12:56:59.697Z,47.92
2024-03-06T12:59:26.636Z,47.72
2024-03-06T13:01:53.650Z,44.13
2024-03-06T13:04:20.439Z,42.75
2024-03-06T13:06:47.226Z,44.13
2024-03-06T13:09:13.956Z,43.40
2024-03-06T13:11:43.258Z,47.95
2024-03-06T13:14:12.950Z,45.00
2024-03-06T13:16:40.668Z,47.40
2024-03-06T13:19:09.500Z,45.53
2024-03-06T13:21:36.461Z,44.38
2024-03-06T13:24:04.164Z,44.08
2024-03-06T13:26:31.118Z,45.80
2024-03-06T13:28:57.882Z,45.65
2024-03-06T13:31:24.683Z,45.40
2024-03-06T13:33:51.416Z,44.17
2024-03-06T13:36:18.302Z,43.47
2024-03-06T13:38:45.958Z,43.63
2024-03-06T13:41:12.912Z,44.20
2024-03-06T13:43:39.710Z,44.97
2024-03-06T13:46:06.519Z,43.17
2024-03-06T13:48:33.357Z,43.70
2024-03-06T13:51:00.187Z,42.42
2024-03-06T13:53:27.113Z,41.08
2024-03-06T13:55:53.951Z,41.50
2024-03-06T13:58:20.752Z,42.28
2024-03-06T14:00:47.533Z,40.83
2024-03-06T14:03:14.421Z,43.58
2024-03-06T14:05:41.334Z,39.83
2024-03-06T14:08:08.912Z,39.85
2024-03-06T14:10:36.541Z,41.80
2024-03-06T14:13:03.862Z,39.83
2024-03-06T14:15:30.600Z,40.05
2024-03-06T14:17:57.703Z,40.00
2024-03-06T14:20:27.365Z,43.03
2024-03-06T14:22:55.086Z,44.17
2024-03-06T14:25:21.996Z,44.50
2024-03-06T14:27:48.873Z,40.33
2024-03-06T14:30:16.419Z,42.53
2024-03-06T14:32:43.283Z,42.33
2024-03-06T14:35:10.292Z,41.70
2024-03-06T14:37:37.257Z,42.53
2024-03-06T14:40:09.456Z,44.08
2024-03-06T14:42:36.458Z,42.13
2024-03-06T14:45:06.025Z,42.28
2024-03-06T14:47:34.322Z,42.47
2024-03-06T14:50:01.214Z,41.38
2024-03-06T14:52:28.039Z,43.63
2024-03-06T14:54:54.775Z,40.47
2024-03-06T14:57:23.106Z,38.95
2024-03-06T14:59:51.089Z,40.35
2024-03-06T15:02:18.014Z,44.08
2024-03-06T15:04:44.784Z,44.60
2024-03-06T15:07:11.565Z,43.90
2024-03-06T15:09:38.651Z,44.20
2024-03-06T15:12:06.683Z,41.28
2024-03-06T15:14:39.473Z,43.78
2024-03-06T15:17:09.490Z,43.35
2024-03-06T15:19:36.240Z,42.88
2024-03-06T15:22:04.620Z,44.38
2024-03-06T15:24:31.852Z,42.60
2024-03-06T15:26:58.654Z,41.35
2024-03-06T15:29:25.415Z,43.20
2024-03-06T15:31:52.251Z,42.53
2024-03-06T15:34:19.132Z,45.58
2024-03-06T15:36:45.894Z,42.72
2024-03-06T15:39:13.155Z,42.92
2024-03-06T15:41:40.013Z,40.63
2024-03-06T15:44:07.755Z,44.15
2024-03-06T15:46:34.782Z,43.92
2024-03-06T15:49:08.754Z,41.83
2024-03-06T15:51:35.502Z,41.17
2024-03-06T15:54:02.227Z,43.20
2024-03-06T15:56:29.867Z,42.90
2024-03-06T15:58:56.690Z,41.85
2024-03-06T16:01:23.481Z,42.58
2024-03-06T16:03:53.548Z,42.30
2024-03-06T16:06:23.190Z,44.72
2024-03-06T16:08:52.841Z,41.60
2024-03-06T16:11:19.758Z,41.13
2024-03-06T16:13:46.537Z,42.55
2024-03-06T16:16:13.295Z,43.58
2024-03-06T16:18:40.204Z,43.33
2024-03-06T16:21:08.100Z,42.10
2024-03-06T16:23:34.828Z,41.45
2024-03-06T16:26:01.596Z,41.40
2024-03-06T16:28:28.321Z,44.10
2024-03-06T16:30:55.258Z,42.70
2024-03-06T16:33:22.139Z,42.47
2024-03-06T16:35:48.941Z,43.75
2024-03-06T16:38:17.887Z,42.53
2024-03-06T16:40:44.666Z,44.83
2024-03-06T16:43:11.422Z,45.00
2024-03-06T16:45:38.221Z,42.25
2024-03-06T16:48:10.155Z,44.90
2024-03-06T16:50:38.810Z,44.65
2024-03-06T16:53:08.595Z,42.92
2024-03-06T16:55:35.948Z,44.95
2024-03-06T16:58:03.354Z,45.13
2024-03-06T17:00:30.166Z,59.85
2024-03-06T17:02:58.153Z,48.78
2024-03-06T17:05:25.125Z,50.78
2024-03-06T17:07:51.996Z,51.30
2024-03-06T17:10:18.840Z,48.53
2024-03-06T17:12:45.681Z,49.60
2024-03-06T17:15:13.865Z,44.20
2024-03-06T17:17:41.935Z,50.00
2024-03-06T17:20:09.405Z,50.20
2024-03-06T17:22:36.245Z,56.35
2024-03-06T17:25:03.070Z,50.45
2024-03-06T17:27:29.852Z,52.25
2024-03-06T17:29:56.672Z,47.50
2024-03-06T17:32:24.788Z,52.40
2024-03-06T17:34:52.414Z,47.30
2024-03-06T17:37:19.460Z,53.67
2024-03-06T17:39:46.213Z,50.22
2024-03-06T17:42:12.996Z,47.47
2024-03-06T17:44:39.834Z,50.10
2024-03-06T17:47:06.666Z,50.00
2024-03-06T17:49:33.608Z,49.47
2024-03-06T17:52:01.538Z,47.55
2024-03-06T17:54:28.412Z,50.60
2024-03-06T17:56:59.539Z,49.38
2024-03-06T17:59:27.536Z,51.22
2024-03-06T18:01:54.537Z,47.58
2024-03-06T18:04:23.287Z,51.25
2024-03-06T18:06:50.765Z,48.95
2024-03-06T18:09:19.787Z,50.70
2024-03-06T18:11:46.790Z,46.35
2024-03-06T18:14:15.645Z,47.33
2024-03-06T18:16:46.131Z,50.67
2024-03-06T18:19:13.193Z,49.10
2024-03-06T18:21:47.780Z,48.25
2024-03-06T18:24:17.681Z,48.08
2024-03-06T18:26:47.887Z,49.22
2024-03-06T18:29:14.850Z,48.55
2024-03-06T18:31:41.875Z,49.28
2024-03-06T18:34:08.680Z,48.80
2024-03-06T18:36:35.503Z,46.33
2024-03-06T18:39:02.413Z,48.67
2024-03-06T18:41:29.355Z,45.92
2024-03-06T18:43:56.196Z,48.22
2024-03-06T18:46:23.026Z,48.38
2024-03-06T18:48:49.769Z,49.47
2024-03-06T18:51:16.510Z,42.45
2024-03-06T18:53:43.304Z,46.63
2024-03-06T18:56:11.513Z,43.35
2024-03-06T18:58:38.400Z,50.08
2024-03-06T19:01:05.376Z,43.08
2024-03-06T19:03:32.249Z,45.20
2024-03-06T19:05:59.120Z,45.63
2024-03-06T19:08:25.971Z,48.30
2024-03-06T19:10:52.911Z,45.45
2024-03-06T19:13:20.491Z,47.17
2024-03-06T19:15:47.291Z,49.35
2024-03-06T19:18:14.248Z,47.55
2024-03-06T19:20:41.183Z,45.72
2024-03-06T19:23:08.263Z,45.42
2024-03-06T19:25:35.202Z,47.88
2024-03-06T19:28:04.149Z,48.63
2024-03-06T19:30:31.195Z,50.28
2024-03-06T19:32:58.082Z,48.58
2024-03-06T19:35:26.637Z,46.92
2024-03-06T19:37:54.427Z,46.03
2024-03-06T19:40:21.294Z,47.20
2024-03-06T19:42:48.205Z,48.67
2024-03-06T19:45:15.057Z,44.90
2024-03-06T19:47:42.096Z,46.78
2024-03-06T19:50:09.923Z,43.67
2024-03-06T19:52:36.941Z,50.90
2024-03-06T19:55:04.228Z,46.40
2024-03-06T19:57:31.219Z,48.35
2024-03-06T20:00:00.631Z,46.70
2024-03-06T20:02:39.305Z,50.50
2024-03-06T20:05:07.933Z,50.90
2024-03-06T20:07:35.236Z,51.65
2024-03-06T20:10:02.596Z,52.42
2024-03-06T20:12:29.650Z,52.85
2024-03-06T20:14:56.522Z,50.20
2024-03-06T20:17:23.468Z,51.58
2024-03-06T20:19:52.340Z,54.20
2024-03-06T20:22:19.090Z,52.05
2024-03-06T20:24:45.874Z,52.35
2024-03-06T20:27:12.719Z,49.47
2024-03-06T20:29:43.057Z,51.83
2024-03-06T20:32:10.080Z,49.78
2024-03-06T20:34:38.407Z,49.75
2024-03-06T20:37:06.025Z,49.85
2024-03-06T20:39:34.289Z,48.63
2024-03-06T20:42:01.217Z,52.78
2024-03-06T20:44:28.054Z,51.25
2024-03-06T20:46:54.911Z,50.92
2024-03-06T20:49:23.104Z,49.78
2024-03-06T20:51:50.944Z,51.13
2024-03-06T20:54:17.903Z,55.40
2024-03-06T20:56:45.001Z,53.30
2024-03-06T20:59:12.013Z,53.90
2024-03-06T21:01:38.980Z,52.40
2024-03-06T21:04:06.036Z,50.53
2024-03-06T21:06:32.904Z,54.97
2024-03-06T21:08:59.787Z,51.95
2024-03-06T21:11:27.266Z,54.72
2024-03-06T21:13:56.852Z,53.60
2024-03-06T21:16:25.069Z,53.70
2024-03-06T21:18:51.998Z,56.17
2024-03-06T21:21:18.882Z,53.25
2024-03-06T21:23:45.813Z,55.65
2024-03-06T21:26:13.226Z,52.03
2024-03-06T21:28:40.088Z,64.38
2024-03-06T21:31:06.854Z,56.00
2024-03-06T21:33:34.562Z,56.78
2024-03-06T21:36:01.482Z,52.53
2024-03-06T21:38:28.842Z,54.97
2024-03-06T21:40:55.659Z,56.00
2024-03-06T21:43:22.459Z,65.65
2024-03-06T21:45:49.318Z,56.47
2024-03-06T21:48:16.378Z,56.55
2024-03-06T21:50:43.976Z,62.63
2024-03-06T21:53:11.396Z,52.10
2024-03-06T21:55:38.248Z,55.83
2024-03-06T21:58:05.055Z,55.70
2024-03-06T22:00:32.569Z,54.38
2024-03-06T22:02:59.552Z,55.78
2024-03-06T22:05:26.440Z,54.25
2024-03-06T22:07:53.275Z,52.28
2024-03-06T22:10:20.027Z,54.10
2024-03-06T22:12:47.972Z,55.03
2024-03-06T22:15:15.612Z,54.67
2024-03-06T22:17:43.135Z,53.53
2024-03-06T22:20:11.107Z,53.78
2024-03-06T22:22:38.439Z,62.50
2024-03-06T22:25:06.254Z,58.85
2024-03-06T22:27:33.061Z,57.38
2024-03-06T22:30:00.139Z,56.03
2024-03-06T22:32:26.998Z,63.28
2024-03-06T22:34:53.762Z,56.33
2024-03-06T22:37:21.265Z,52.58
2024-03-06T22:39:48.249Z,55.70
2024-03-06T22:42:15.062Z,59.63
2024-03-06T22:44:42.014Z,58.53
2024-03-06T22:47:09.416Z,52.72
2024-03-06T22:49:36.893Z,53.55
2024-03-06T22:52:03.896Z,53.97
2024-03-06T22:54:30.741Z,56.45
2024-03-06T22:56:57.791Z,53.80
2024-03-06T22:59:24.748Z,57.92
2024-03-06T23:01:51.673Z,53.92
2024-03-06T23:04:18.968Z,58.75
2024-03-06T23:06:46.656Z,55.83
2024-03-06T23:09:14.703Z,53.22
2024-03-06T23:11:42.159Z,55.00
2024-03-06T23:14:09.126Z,58.63
2024-03-06T23:16:36.186Z,60.70
2024-03-06T23:19:04.555Z,53.80
2024-03-06T23:21:33.442Z,54.05
2024-03-06T23:24:00.326Z,58.13
2024-03-06T23:26:27.238Z,59.85
2024-03-06T23:28:53.989Z,55.47
2024-03-06T23:31:20.785Z,56.00
2024-03-06T23:33:47.552Z,54.85
2024-03-06T23:36:14.331Z,55.25
2024-03-06T23:38:41.207Z,54.20
2024-03-06T23:41:08.049Z,54.67
2024-03-06T23:43:34.889Z,53.33
2024-03-06T23:46:01.721Z,55.08
2024-03-06T23:48:28.684Z,51.67
2024-03-06T23:50:55.796Z,51.17
2024-03-06T23:53:22.810Z,54.58
2024-03-06T23:55:50.634Z,53.67
2024-03-06T23:58:17.569Z,55.55
